Time;durP1;ratioP1;P1;durP2;ratioP2;P2;SDS_P1;SDS_P2;PMS_P1;PMS_P2;Temp;Humidity;BMP_temperature;BMP_pressure;BME280_temperature;BME280_humidity;BME280_pressure;Samples;Min_cycle;Max_cycle;Signal;HPM_P1;HPM_P2
2022/09/25 00:00:12;;;;;;;10.32;3.20;;;10.00;99.90;;;;;;5052408;28;20495;-71
2022/09/25 00:02:37;;;;;;;6.25;2.58;;;9.90;99.90;;;;;;5053949;28;20041;-71
2022/09/25 00:05:04;;;;;;;6.03;3.17;;;;;;;;;;5053444;28;20038;-71
2022/09/25 00:07:30;;;;;;;6.57;2.78;;;;;;;;;;5053717;28;20453;-71
2022/09/25 00:09:55;;;;;;;6.45;3.00;;;;;;;;;;5053825;28;20041;-70
2022/09/25 00:12:21;;;;;;;7.97;3.25;;;10.00;99.90;;;;;;5052389;28;20045;-71
2022/09/25 00:14:50;;;;;;;5.05;2.65;;;9.80;99.90;;;;;;5052137;28;20494;-71
2022/09/25 00:17:16;;;;;;;5.72;2.95;;;9.90;99.90;;;;;;5052531;28;20037;-71
2022/09/25 00:19:51;;;;;;;5.75;3.13;;;;;;;;;;5053521;28;20510;-71
2022/09/25 00:22:18;;;;;;;17.25;9.85;;;9.90;99.90;;;;;;5053457;28;20033;-71
2022/09/25 00:24:44;;;;;;;23.55;14.80;;;;;;;;;;5035189;28;20036;-71
2022/09/25 00:27:10;;;;;;;16.95;9.90;;;;;;;;;;5035678;28;20310;-71
2022/09/25 00:29:38;;;;;;;14.77;7.68;;;9.80;99.90;;;;;;5052178;28;20037;-71
2022/09/25 00:32:05;;;;;;;6.07;3.35;;;9.70;99.90;;;;;;5053088;28;20037;-71
2022/09/25 00:34:31;;;;;;;7.07;3.63;;;;;;;;;;5051879;28;20041;-71
2022/09/25 00:36:57;;;;;;;6.75;2.83;;;;;;;;;;5053175;28;20047;-71
2022/09/25 00:39:24;;;;;;;4.00;2.38;;;;;;;;;;5053250;28;20041;-71
2022/09/25 00:41:50;;;;;;;9.10;3.03;;;9.80;99.90;;;;;;5035158;28;20402;-71
2022/09/25 00:44:51;;;;;;;8.38;2.30;;;9.80;99.90;;;;;;5068247;28;20187;-71
2022/09/25 00:47:23;;;;;;;6.90;2.55;;;9.60;99.90;;;;;;5001398;28;20056;-71
2022/09/25 00:49:51;;;;;;;8.32;2.55;;;9.70;99.90;;;;;;5052994;28;20380;-70
2022/09/25 00:52:17;;;;;;;6.88;2.83;;;9.60;99.90;;;;;;5034975;28;20045;-70
2022/09/25 00:54:47;;;;;;;8.77;2.78;;;9.60;99.90;;;;;;5051617;28;20044;-71
2022/09/25 00:57:18;;;;;;;6.13;1.98;;;9.60;99.90;;;;;;5052951;28;20090;-71
2022/09/25 00:59:48;;;;;;;4.35;2.17;;;9.60;99.90;;;;;;5051409;28;20758;-71
2022/09/25 01:02:21;;;;;;;4.38;2.15;;;9.40;99.90;;;;;;5051590;28;20162;-71
2022/09/25 01:04:47;;;;;;;6.55;2.70;;;;;;;;;;5051102;28;20124;-71
2022/09/25 01:07:13;;;;;;;6.03;2.20;;;;;;;;;;5052910;28;20075;-71
2022/09/25 01:09:40;;;;;;;5.95;2.70;;;9.40;99.90;;;;;;5052859;28;20040;-71
2022/09/25 01:12:07;;;;;;;2.97;2.00;;;;;;;;;;5052505;28;20033;-71
2022/09/25 01:14:33;;;;;;;7.50;2.42;;;;;;;;;;5052169;28;20491;-71
2022/09/25 01:17:28;;;;;;;4.97;3.22;;;9.40;99.90;;;;;;5051147;28;20048;-71
2022/09/25 01:20:09;;;;;;;4.65;2.30;;;9.40;99.90;;;;;;5046694;28;20041;-71
2022/09/25 01:23:20;;;;;;;5.72;2.38;;;9.40;99.90;;;;;;5034603;28;20087;-71
2022/09/25 01:25:59;;;;;;;6.22;2.67;;;9.30;99.90;;;;;;5050735;28;20080;-71
2022/09/25 01:28:30;;;;;;;9.63;2.30;;;9.50;99.90;;;;;;5051393;28;20413;-71
2022/09/25 01:31:09;;;;;;;5.28;2.45;;;9.40;99.90;;;;;;5052399;28;20036;-71
2022/09/25 01:33:44;;;;;;;3.58;2.85;;;9.40;99.90;;;;;;5050356;28;20040;-71
2022/09/25 01:36:20;;;;;;;6.15;2.40;;;9.30;99.90;;;;;;5051035;28;20044;-71
2022/09/25 01:38:51;;;;;;;5.93;2.25;;;9.40;99.90;;;;;;5051057;28;20041;-71
2022/09/25 01:41:19;;;;;;;8.35;2.38;;;9.30;99.90;;;;;;5052240;28;20045;-71
2022/09/25 01:43:57;;;;;;;6.53;2.22;;;9.40;99.90;;;;;;5051946;28;20041;-71
2022/09/25 01:46:27;;;;;;;5.50;2.60;;;9.30;99.90;;;;;;5034304;28;20060;-71
2022/09/25 01:49:01;;;;;;;5.07;2.20;;;9.40;99.90;;;;;;5050993;28;20430;-71
2022/09/25 01:51:34;;;;;;;8.88;3.13;;;9.30;99.90;;;;;;5051852;28;20076;-71
2022/09/25 01:54:14;;;;;;;4.75;2.08;;;9.40;99.90;;;;;;5050415;28;20098;-71
2022/09/25 01:56:54;;;;;;;4.32;2.30;;;9.50;99.90;;;;;;5050693;28;20124;-70
2022/09/25 01:59:37;;;;;;;8.48;2.20;;;9.60;99.90;;;;;;5050362;28;20128;-70
2022/09/25 02:02:06;;;;;;;7.10;3.92;;;9.50;99.90;;;;;;5050745;28;20095;-71
2022/09/25 02:04:53;;;;;;;7.50;3.47;;;9.70;99.90;;;;;;5050266;28;20044;-71
2022/09/25 02:07:25;;;;;;;5.07;3.30;;;9.60;99.90;;;;;;5034125;28;20537;-71
2022/09/25 02:10:03;;;;;;;10.00;4.15;;;9.70;99.90;;;;;;5050810;28;20055;-71
2022/09/25 02:12:33;;;;;;;6.88;3.90;;;9.70;99.90;;;;;;5051543;28;20498;-71
2022/09/25 02:15:26;;;;;;;9.00;3.95;;;9.90;99.90;;;;;;5050216;28;20037;-71
2022/09/25 02:21:14;;;;;;;8.65;2.55;;;10.00;99.90;;;;;;5051873;28;20049;-71
2022/09/25 02:24:03;;;;;;;5.30;2.83;;;9.90;99.90;;;;;;5050258;28;20099;-71
2022/09/25 02:26:31;;;;;;;7.30;3.25;;;9.70;99.90;;;;;;5051862;28;20041;-70
2022/09/25 02:28:57;;;;;;;9.25;3.53;;;9.80;99.90;;;;;;5051726;28;20041;-71
2022/09/25 02:31:34;;;;;;;7.53;2.95;;;9.70;99.90;;;;;;5051568;28;20116;-71
2022/09/25 02:34:00;;;;;;;8.73;2.28;;;9.70;99.90;;;;;;5051424;28;20041;-71
2022/09/25 02:36:26;;;;;;;6.45;2.45;;;9.70;99.90;;;;;;5054930;28;20518;-71
2022/09/25 02:38:54;;;;;;;9.00;2.45;;;9.50;99.90;;;;;;5059959;28;20041;-71
2022/09/25 02:41:41;;;;;;;4.28;2.20;;;9.50;99.90;;;;;;5059918;28;20372;-70
2022/09/25 02:44:07;;;;;;;10.90;2.33;;;;;;;;;;5057216;28;20044;-70
2022/09/25 02:47:01;;;;;;;4.15;1.60;;;9.40;99.90;;;;;;5054331;28;20052;-70
2022/09/25 02:49:39;;;;;;;6.65;1.98;;;9.30;99.90;;;;;;5055741;28;20418;-71
2022/09/25 02:52:10;;;;;;;3.67;1.77;;;9.50;99.90;;;;;;5053976;28;20045;-70
2022/09/25 02:55:03;;;;;;;4.22;2.08;;;9.20;99.90;;;;;;5053648;28;20422;-70
2022/09/25 02:57:29;;;;;;;4.00;1.43;;;;;;;;;;5054129;28;20098;-70
2022/09/25 02:59:59;;;;;;;6.20;2.08;;;9.20;99.90;;;;;;5053520;28;20129;-70
2022/09/25 03:02:27;;;;;;;5.47;1.90;;;9.00;99.90;;;;;;5055029;28;20037;-71
2022/09/25 03:04:54;;;;;;;7.32;2.78;;;9.20;99.90;;;;;;5054693;28;20033;-71
2022/09/25 03:07:20;;;;;;;3.60;1.80;;;9.20;99.90;;;;;;5053704;28;20033;-71
2022/09/25 03:09:49;;;;;;;4.80;2.13;;;9.00;99.90;;;;;;5053671;28;20040;-71
2022/09/25 03:12:15;;;;;;;5.85;1.90;;;9.20;99.90;;;;;;5054731;28;20041;-71
2022/09/25 03:14:41;;;;;;;4.85;1.90;;;;;;;;;;5054469;28;20033;-71
2022/09/25 03:17:09;;;;;;;3.97;1.85;;;;;;;;;;5053388;28;20087;-71
2022/09/25 03:19:35;;;;;;;6.57;2.25;;;9.00;99.90;;;;;;5053401;28;20051;-70
2022/09/25 03:22:01;;;;;;;5.88;2.03;;;9.10;99.90;;;;;;5054760;28;20102;-71
2022/09/25 03:24:27;;;;;;;5.55;1.77;;;9.00;99.90;;;;;;5053381;28;20091;-71
2022/09/25 03:26:53;;;;;;;5.45;1.75;;;9.20;99.90;;;;;;5054557;28;20254;-71
2022/09/25 03:29:20;;;;;;;9.02;2.95;;;9.10;99.90;;;;;;5036629;28;20052;-71
2022/09/25 03:31:46;;;;;;;10.55;2.45;;;9.20;99.90;;;;;;5036470;28;20598;-71
2022/09/25 03:34:14;;;;;;;8.00;2.47;;;9.40;99.90;;;;;;5036219;28;20068;-70
2022/09/25 03:36:41;;;;;;;7.03;2.03;;;9.40;99.90;;;;;;5054624;28;20052;-70
2022/09/25 03:39:09;;;;;;;10.05;2.15;;;9.70;99.90;;;;;;5053015;28;20051;-71
2022/09/25 03:41:35;;;;;;;8.10;4.45;;;10.00;99.90;;;;;;5053182;28;20037;-71
2022/09/25 03:44:02;;;;;;;9.77;5.00;;;9.80;99.90;;;;;;5052767;28;20044;-71
2022/09/25 03:46:30;;;;;;;6.43;4.22;;;10.10;99.90;;;;;;5036175;28;20037;-71
2022/09/25 03:48:56;;;;;;;8.80;4.22;;;10.00;99.90;;;;;;5054342;28;20052;-71
2022/09/25 03:51:23;;;;;;;12.57;4.20;;;10.10;99.90;;;;;;5036178;28;20044;-71
2022/09/25 03:53:49;;;;;;;9.18;3.10;;;;;;;;;;5052587;28;20502;-71
2022/09/25 03:56:20;;;;;;;4.50;2.40;;;10.40;99.90;;;;;;5053546;28;20041;-71
2022/09/25 03:58:46;;;;;;;6.90;2.60;;;10.20;99.90;;;;;;5035921;28;20040;-70
2022/09/25 04:01:13;;;;;;;4.45;2.67;;;10.30;99.90;;;;;;5054043;28;20040;-71
2022/09/25 04:03:39;;;;;;;5.07;2.72;;;10.50;99.90;;;;;;5054040;28;20423;-71
2022/09/25 04:06:07;;;;;;;7.68;2.17;;;10.30;99.90;;;;;;5052261;28;20041;-71
2022/09/25 04:08:34;;;;;;;9.52;2.42;;;10.30;99.90;;;;;;5053887;28;20051;-71
2022/09/25 04:11:01;;;;;;;7.45;1.73;;;10.40;99.90;;;;;;5035843;28;20048;-71
2022/09/25 04:13:39;;;;;;;5.60;2.10;;;10.40;99.90;;;;;;5052363;28;20072;-71
2022/09/25 04:16:06;;;;;;;4.28;1.90;;;10.10;99.90;;;;;;5053625;28;20044;-71
2022/09/25 04:18:32;;;;;;;3.67;1.40;;;10.20;99.90;;;;;;5052475;28;20052;-71
2022/09/25 04:20:59;;;;;;;7.28;1.70;;;10.20;99.90;;;;;;5052313;28;20029;-71
2022/09/25 04:23:25;;;;;;;2.42;1.60;;;10.30;99.90;;;;;;5052262;28;20133;-71
2022/09/25 04:25:52;;;;;;;9.25;1.65;;;10.20;99.90;;;;;;5052072;28;20131;-71
2022/09/25 04:28:18;;;;;;;5.07;1.55;;;;;;;;;;5052383;28;20044;-71
2022/09/25 04:30:43;;;;;;;7.30;1.33;;;10.10;99.90;;;;;;5052285;28;20525;-71
2022/09/25 04:35:53;;;;;;;6.28;1.00;;;10.10;99.90;;;;;;5053076;28;20096;-70
2022/09/25 04:38:19;;;;;;;8.38;1.77;;;10.40;99.90;;;;;;5053124;28;20376;-70
2022/09/25 04:40:44;;;;;;;3.92;1.58;;;10.30;99.90;;;;;;5052182;28;20048;-71
2022/09/25 04:43:10;;;;;;;6.53;1.73;;;10.30;99.90;;;;;;5051857;28;20045;-71
2022/09/25 04:45:36;;;;;;;7.80;3.22;;;10.40;99.90;;;;;;5051780;28;20490;-71
2022/09/25 04:48:03;;;;;;;4.68;2.70;;;10.40;99.90;;;;;;5052983;28;20037;-71
2022/09/25 04:50:29;;;;;;;7.97;1.73;;;10.50;99.90;;;;;;5051783;28;20119;-71
2022/09/25 04:52:58;;;;;;;5.07;1.65;;;10.60;99.90;;;;;;5052724;28;20037;-71
2022/09/25 04:55:24;;;;;;;4.88;1.15;;;10.50;99.90;;;;;;5051594;28;20460;-71
2022/09/25 04:57:55;;;;;;;12.65;2.38;;;10.50;99.90;;;;;;5051543;28;20037;-71
2022/09/25 05:00:23;;;;;;;6.75;2.55;;;11.20;99.90;;;;;;5052621;28;20104;-70
2022/09/25 05:02:49;;;;;;;7.93;2.35;;;10.70;99.90;;;;;;5051269;28;20529;-71
2022/09/25 05:05:15;;;;;;;5.07;1.50;;;10.80;99.90;;;;;;5051179;28;20040;-71
2022/09/25 05:07:54;;;;;;;8.93;2.20;;;10.80;99.90;;;;;;5052287;28;20411;-71
2022/09/25 05:10:21;;;;;;;3.00;1.38;;;10.70;99.90;;;;;;5052490;28;20495;-71
2022/09/25 05:12:47;;;;;;;6.60;2.00;;;10.80;99.90;;;;;;5052227;28;20158;-71
2022/09/25 05:15:13;;;;;;;4.40;1.55;;;10.70;99.90;;;;;;5050863;28;20041;-70
2022/09/25 05:17:39;;;;;;;5.97;1.17;;;;;;;;;;5034513;28;20174;-71
2022/09/25 05:20:05;;;;;;;5.63;1.60;;;10.60;99.90;;;;;;5051069;28;20124;-71
2022/09/25 05:22:31;;;;;;;5.70;1.40;;;10.60;99.90;;;;;;5051046;28;20029;-70
2022/09/25 05:24:57;;;;;;;4.47;1.42;;;11.30;99.90;;;;;;5050950;28;20399;-70
2022/09/25 05:27:22;;;;;;;2.22;1.25;;;10.40;99.90;;;;;;5051033;28;20033;-70
2022/09/25 05:29:48;;;;;;;6.55;1.58;;;10.50;99.90;;;;;;5050915;28;20127;-70
2022/09/25 05:32:14;;;;;;;3.30;1.73;;;10.50;99.90;;;;;;5052299;28;20037;-70
2022/09/25 05:34:40;;;;;;;3.10;1.00;;;10.50;99.90;;;;;;5050720;28;20449;-70
2022/09/25 05:37:06;;;;;;;2.85;1.40;;;10.40;99.90;;;;;;5034493;28;20041;-70
2022/09/25 05:39:31;;;;;;;6.88;1.40;;;10.50;99.90;;;;;;5050825;28;20033;-70
2022/09/25 05:41:57;;;;;;;3.75;1.52;;;10.60;99.90;;;;;;5052056;28;20083;-70
2022/09/25 05:44:23;;;;;;;5.22;1.27;;;10.50;99.90;;;;;;5050676;28;20041;-70
2022/09/25 05:46:49;;;;;;;5.40;1.60;;;10.50;99.90;;;;;;5050767;28;20044;-70
2022/09/25 05:49:15;;;;;;;7.50;1.63;;;10.90;99.90;;;;;;5034154;28;20498;-70
2022/09/25 05:51:40;;;;;;;5.53;1.92;;;10.60;99.90;;;;;;5050809;28;20044;-70
2022/09/25 05:54:06;;;;;;;7.80;1.98;;;10.60;99.90;;;;;;5050295;28;20094;-70
2022/09/25 05:56:31;;;;;;;9.90;1.67;;;10.90;99.90;;;;;;5051979;28;20036;-70
2022/09/25 05:58:58;;;;;;;4.25;1.60;;;10.90;99.90;;;;;;5050277;28;20126;-70
2022/09/25 06:01:24;;;;;;;7.05;1.80;;;10.90;99.90;;;;;;5051608;28;20506;-70
2022/09/25 06:03:50;;;;;;;8.07;1.60;;;10.80;99.90;;;;;;5050332;28;20502;-70
2022/09/25 06:06:15;;;;;;;4.68;1.75;;;10.90;99.90;;;;;;5050433;28;20037;-70
2022/09/25 06:08:41;;;;;;;9.15;1.90;;;;;;;;;;5067401;28;20119;-70
2022/09/25 06:11:07;;;;;;;3.58;1.60;;;10.80;99.90;;;;;;5050264;28;20550;-70
2022/09/25 06:13:35;;;;;;;10.93;1.85;;;10.70;99.90;;;;;;5051750;28;20049;-70
2022/09/25 06:16:02;;;;;;;4.15;1.77;;;10.80;99.90;;;;;;5050199;28;20048;-71
2022/09/25 06:18:27;;;;;;;4.45;1.77;;;10.60;99.90;;;;;;5051604;28;20041;-71
2022/09/25 06:21:00;;;;;;;3.88;1.50;;;10.60;99.90;;;;;;5055169;28;20055;-71
2022/09/25 06:23:26;;;;;;;6.95;1.50;;;10.70;99.90;;;;;;5055777;28;20120;-70
2022/09/25 06:25:52;;;;;;;4.57;1.27;;;10.50;99.90;;;;;;5055361;28;20116;-70
2022/09/25 06:28:17;;;;;;;5.28;1.40;;;10.60;99.90;;;;;;5054345;28;20432;-70
2022/09/25 06:30:44;;;;;;;4.47;1.17;;;10.60;99.90;;;;;;5055672;28;20044;-70
2022/09/25 06:33:11;;;;;;;2.55;1.15;;;10.70;99.90;;;;;;5054252;28;20037;-70
2022/09/25 06:35:42;;;;;;;5.32;1.70;;;10.80;99.90;;;;;;5053914;28;20041;-70
2022/09/25 06:38:08;;;;;;;8.23;2.00;;;10.90;99.90;;;;;;5055378;28;20045;-70
2022/09/25 06:40:36;;;;;;;7.55;1.73;;;10.90;99.90;;;;;;5054214;28;20039;-71
2022/09/25 06:43:03;;;;;;;3.08;1.45;;;10.90;99.90;;;;;;5055728;28;20384;-71
2022/09/25 06:45:32;;;;;;;5.88;1.50;;;10.60;99.90;;;;;;5054091;28;20502;-71
2022/09/25 06:48:05;;;;;;;5.47;1.50;;;10.80;99.90;;;;;;5054015;28;20044;-71
2022/09/25 06:50:44;;;;;;;3.47;1.60;;;11.00;99.90;;;;;;5055425;28;20051;-71
2022/09/25 06:53:11;;;;;;;4.53;1.63;;;11.10;99.90;;;;;;5055289;28;20045;-71
2022/09/25 06:55:37;;;;;;;6.30;1.60;;;11.10;99.90;;;;;;5037255;28;20437;-71
2022/09/25 06:58:05;;;;;;;3.75;1.45;;;11.20;99.90;;;;;;5053839;28;20033;-71
2022/09/25 07:00:31;;;;;;;7.13;1.92;;;11.00;99.90;;;;;;5054770;28;20037;-71
2022/09/25 07:05:43;;;;;;;6.53;1.58;;;;;;;;;;5053526;28;20041;-71
2022/09/25 07:08:11;;;;;;;7.22;2.25;;;11.50;99.90;;;;;;5037021;28;20045;-71
2022/09/25 07:10:37;;;;;;;4.78;1.38;;;11.50;99.90;;;;;;5053620;28;20052;-71
2022/09/25 07:13:03;;;;;;;8.45;1.30;;;11.70;99.90;;;;;;5053301;28;20491;-71
2022/09/25 07:15:30;;;;;;;2.88;1.33;;;11.70;99.90;;;;;;5053085;28;20047;-71
2022/09/25 07:17:55;;;;;;;6.32;1.33;;;11.70;99.90;;;;;;5054924;28;20048;-71
2022/09/25 07:20:21;;;;;;;12.32;2.10;;;11.90;99.90;;;;;;5054655;28;20033;-71
2022/09/25 07:22:46;;;;;;;5.05;1.20;;;12.20;99.90;;;;;;5054667;28;20126;-71
2022/09/25 07:25:12;;;;;;;6.07;1.75;;;12.00;99.90;;;;;;5054452;28;20087;-71
2022/09/25 07:27:38;;;;;;;11.48;1.73;;;12.10;99.90;;;;;;5054632;28;20491;-71
2022/09/25 07:30:05;;;;;;;5.10;1.45;;;12.50;99.90;;;;;;5056020;28;20044;-71
2022/09/25 07:32:31;;;;;;;4.95;1.08;;;12.50;99.90;;;;;;5062870;28;20045;-71
2022/09/25 07:34:57;;;;;;;4.88;1.40;;;12.50;99.90;;;;;;5063593;28;20048;-71
2022/09/25 07:37:23;;;;;;;5.63;1.15;;;12.40;99.90;;;;;;5061269;28;20033;-71
2022/09/25 07:39:49;;;;;;;6.43;1.25;;;12.30;99.90;;;;;;5057405;28;20040;-72
2022/09/25 07:42:15;;;;;;;5.80;1.17;;;12.30;99.90;;;;;;5054660;28;20583;-72
2022/09/25 07:44:41;;;;;;;5.28;1.70;;;12.30;99.90;;;;;;5052627;28;20051;-72
2022/09/25 07:47:07;;;;;;;5.90;1.20;;;;;;;;;;5055377;28;20410;-74
2022/09/25 07:49:34;;;;;;;3.70;1.58;;;12.40;99.90;;;;;;5060446;28;20099;-73
2022/09/25 07:52:00;;;;;;;8.10;1.35;;;12.40;99.90;;;;;;5055767;28;20094;-72
2022/09/25 07:54:26;;;;;;;8.20;1.67;;;12.40;99.90;;;;;;5053571;28;20041;-72
2022/09/25 07:56:53;;;;;;;3.88;1.33;;;;;;;;;;5052532;28;20525;-72
2022/09/25 07:59:18;;;;;;;8.38;1.20;;;12.60;99.90;;;;;;5052599;28;20112;-72
2022/09/25 08:01:45;;;;;;;6.30;1.30;;;;;;;;;;5054063;28;20087;-72
2022/09/25 08:04:11;;;;;;;5.93;1.27;;;12.90;99.90;;;;;;5053705;28;20064;-73
2022/09/25 08:06:37;;;;;;;3.63;1.13;;;12.60;99.90;;;;;;5069592;28;20051;-72
2022/09/25 08:09:03;;;;;;;5.43;1.05;;;13.20;99.90;;;;;;5053820;28;20071;-72
2022/09/25 08:11:30;;;;;;;4.85;1.10;;;13.20;99.90;;;;;;5052303;28;20475;-72
2022/09/25 08:13:56;;;;;;;3.72;0.90;;;13.40;99.90;;;;;;5052217;28;20049;-72
2022/09/25 08:16:22;;;;;;;7.15;1.35;;;13.50;99.90;;;;;;5052780;28;20041;-72
2022/09/25 08:18:48;;;;;;;7.10;1.60;;;13.70;99.90;;;;;;5052479;28;20033;-72
2022/09/25 08:21:17;;;;;;;6.13;1.50;;;13.70;99.90;;;;;;5035627;28;20487;-72
2022/09/25 08:23:48;;;;;;;4.97;1.70;;;13.80;99.90;;;;;;5035814;28;20037;-72
2022/09/25 08:26:17;;;;;;;4.45;1.20;;;13.90;99.90;;;;;;5052212;28;20048;-72
2022/09/25 08:28:43;;;;;;;4.20;1.02;;;13.90;99.90;;;;;;5053520;28;20041;-72
2022/09/25 08:31:09;;;;;;;6.28;1.00;;;13.90;99.90;;;;;;5035472;28;20124;-73
2022/09/25 08:33:36;;;;;;;2.97;1.13;;;14.00;99.90;;;;;;5035399;28;20180;-72
2022/09/25 08:36:03;;;;;;;6.75;2.47;;;14.70;99.90;;;;;;5051739;28;20041;-72
2022/09/25 08:38:31;;;;;;;8.35;1.63;;;13.90;99.90;;;;;;5052217;28;20041;-72
2022/09/25 08:41:08;;;;;;;3.90;0.98;;;13.90;99.90;;;;;;5052115;28;20048;-73
2022/09/25 08:43:42;;;;;;;8.20;4.72;;;13.00;99.90;;;;;;5051831;28;20124;-73
2022/09/25 08:49:09;;;;;;;6.07;3.28;;;12.80;99.90;;;;;;5051858;28;20052;-72
2022/09/25 08:51:47;;;;;;;2.85;1.27;;;12.50;99.90;;;;;;5051887;28;20033;-73
2022/09/25 08:54:28;;;;;;;4.45;1.33;;;12.60;99.90;;;;;;5051435;28;20100;-73
2022/09/25 08:57:29;;;;;;;4.18;2.63;;;13.00;99.90;;;;;;5035161;28;20126;-73
2022/09/25 09:00:00;;;;;;;3.03;1.83;;;12.70;99.90;;;;;;5047097;28;20134;-72
2022/09/25 09:02:39;;;;;;;2.72;1.08;;;12.60;99.90;;;;;;5035143;28;20036;-72
2022/09/25 09:05:16;;;;;;;2.85;1.52;;;12.70;99.90;;;;;;5051372;28;20051;-72
2022/09/25 09:07:45;;;;;;;8.10;0.98;;;12.80;99.90;;;;;;5051472;28;20487;-72
2022/09/25 09:10:29;;;;;;;4.88;1.42;;;12.90;99.90;;;;;;5051500;28;20052;-72
2022/09/25 09:13:13;;;;;;;6.72;1.90;;;12.90;99.90;;;;;;5052312;28;20053;-72
2022/09/25 09:15:46;;;;;;;3.95;1.10;;;13.10;99.90;;;;;;5052470;28;20033;-72
2022/09/25 09:18:28;;;;;;;2.58;0.98;;;13.20;99.90;;;;;;5051286;28;20037;-72
2022/09/25 09:21:03;;;;;;;2.22;0.88;;;13.30;99.90;;;;;;5052603;28;20098;-72
2022/09/25 09:24:00;;;;;;;2.80;1.00;;;13.30;99.90;;;;;;5052388;28;20048;-72
2022/09/25 09:26:32;;;;;;;3.35;1.05;;;13.40;99.90;;;;;;5014049;28;20084;-71
2022/09/25 09:29:09;;;;;;;5.28;1.20;;;13.20;99.90;;;;;;5052388;28;20040;-71
2022/09/25 09:31:49;;;;;;;3.25;0.73;;;13.50;99.90;;;;;;5051233;28;20045;-71
2022/09/25 09:34:46;;;;;;;2.10;0.88;;;13.80;99.90;;;;;;5051874;28;20056;-71
2022/09/25 09:37:33;;;;;;;6.07;1.17;;;13.50;99.90;;;;;;5052317;28;20175;-71
2022/09/25 09:40:17;;;;;;;5.15;0.90;;;13.60;99.90;;;;;;5050935;28;20041;-72
2022/09/25 09:42:58;;;;;;;1.75;0.70;;;13.80;99.90;;;;;;5052214;28;20044;-72
2022/09/25 09:45:34;;;;;;;4.65;0.90;;;13.90;99.90;;;;;;5034117;28;20037;-72
2022/09/25 09:48:16;;;;;;;4.20;1.13;;;14.10;99.90;;;;;;5052106;28;20403;-72
2022/09/25 09:50:52;;;;;;;2.75;0.95;;;14.30;99.90;;;;;;5052007;28;20033;-72
2022/09/25 09:53:26;;;;;;;3.10;0.88;;;;;;;;;;5051947;28;20053;-72
2022/09/25 09:55:59;;;;;;;6.28;0.93;;;14.40;99.90;;;;;;5033419;28;20049;-72
2022/09/25 09:58:47;;;;;;;11.50;1.80;;;14.70;99.90;;;;;;5050704;28;20503;-72
2022/09/25 10:01:15;;;;;;;4.78;1.08;;;14.20;99.90;;;;;;5050547;28;20299;-72
2022/09/25 10:03:43;;;;;;;3.40;0.93;;;14.50;99.90;;;;;;5033909;28;20529;-72
2022/09/25 10:06:12;;;;;;;6.40;0.80;;;14.50;99.90;;;;;;5067210;28;20045;-72
2022/09/25 10:08:39;;;;;;;7.28;1.98;;;14.40;99.90;;;;;;5050747;28;20111;-72
2022/09/25 10:11:15;;;;;;;3.67;0.75;;;14.60;99.90;;;;;;5051493;28;20072;-72
2022/09/25 10:13:43;;;;;;;2.72;0.60;;;14.70;99.90;;;;;;5050504;28;20521;-72
2022/09/25 10:16:10;;;;;;;2.90;0.60;;;14.60;99.90;;;;;;5050146;28;20086;-72
2022/09/25 10:18:51;;;;;;;1.85;0.65;;;15.30;99.90;;;;;;5050452;28;20037;-72
2022/09/25 10:21:23;;;;;;;5.25;2.05;;;15.20;99.90;;;;;;5050444;28;20033;-72
2022/09/25 10:23:52;;;;;;;3.50;1.07;;;16.10;99.90;;;;;;5051319;28;20084;-72
2022/09/25 10:26:35;;;;;;;6.57;1.02;;;15.50;99.90;;;;;;5051867;28;20644;-72
2022/09/25 10:29:02;;;;;;;;;;;16.30;99.90;;;;;;5051064;28;20049;-72
2022/09/25 10:31:39;;;;;;;2.00;0.95;;;15.90;99.90;;;;;;5050304;28;19923;-72
2022/09/25 10:34:21;;;;;;;4.70;0.98;;;16.00;99.90;;;;;;5050013;28;20049;-72
2022/09/25 10:36:51;;;;;;;4.07;1.00;;;15.40;99.90;;;;;;5033741;28;20041;-72
2022/09/25 10:39:35;;;;;;;2.75;0.75;;;15.90;99.90;;;;;;5033913;28;20494;-73
2022/09/25 10:42:07;;;;;;;1.90;0.65;;;16.30;99.90;;;;;;5051390;28;20158;-72
2022/09/25 10:44:39;;;;;;;1.88;0.57;;;16.20;99.90;;;;;;5049907;28;20044;-72
2022/09/25 10:50:20;;;;;;;4.65;1.73;;;16.20;99.90;;;;;;5050472;28;20093;-71
2022/09/25 10:52:49;;;;;;;3.35;1.00;;;15.60;99.90;;;;;;5058097;28;20213;-71
2022/09/25 10:55:38;;;;;;;4.45;0.70;;;15.70;99.90;;;;;;5059108;28;20118;-71
2022/09/25 10:58:24;;;;;;;1.98;0.70;;;15.40;99.90;;;;;;5034008;28;20041;-71
2022/09/25 11:00:50;;;;;;;1.70;0.60;;;15.30;99.90;;;;;;5066409;28;20037;-71
2022/09/25 11:03:23;;;;;;;3.28;0.85;;;15.30;99.90;;;;;;5050349;28;20102;-71
2022/09/25 11:05:51;;;;;;;;;;;15.90;99.90;;;;;;5050092;28;20103;-71
2022/09/25 11:08:18;;;;;;;3.58;1.60;;;15.10;99.90;;;;;;5055028;28;20056;-71
2022/09/25 11:10:51;;;;;;;3.75;0.70;;;15.20;99.90;;;;;;5053698;28;20091;-71
2022/09/25 11:13:23;;;;;;;2.90;1.15;;;15.10;99.90;;;;;;5092294;22;20048;-69
2022/09/25 11:15:56;;;;;;;2.53;1.25;;;15.30;99.90;;;;;;5073798;28;20036;-69
2022/09/25 11:18:43;;;;;;;10.88;2.15;;;15.60;99.90;;;;;;5073189;28;20091;-70
2022/09/25 11:21:32;;;;;;;4.53;0.90;;;15.20;99.90;;;;;;5074634;28;20036;-69
2022/09/25 11:24:32;;;;;;;4.63;1.38;;;15.10;99.90;;;;;;5056088;28;20232;-69
2022/09/25 11:27:30;;;;;;;6.95;1.30;;;15.00;99.90;;;;;;5073305;28;20040;-70
2022/09/25 11:30:14;;;;;;;5.95;2.28;;;15.20;99.90;;;;;;5073304;28;20047;-69
2022/09/25 11:32:59;;;;;;;6.00;1.45;;;15.40;99.90;;;;;;5072775;28;20043;-70
2022/09/25 11:35:54;;;;;;;4.10;1.33;;;15.20;99.90;;;;;;5072723;28;20056;-70
2022/09/25 11:41:49;;;;;;;3.88;1.90;;;15.30;99.90;;;;;;5072619;28;20540;-69
2022/09/25 11:44:18;;;;;;;4.18;1.48;;;15.40;99.90;;;;;;5072640;28;20049;-69
2022/09/25 11:47:01;;;;;;;7.32;1.80;;;15.40;99.90;;;;;;5072659;28;20040;-70
2022/09/25 11:49:30;;;;;;;2.30;0.63;;;15.40;99.90;;;;;;5056090;28;20047;-70
2022/09/25 11:52:36;;;;;;;4.13;1.08;;;15.90;99.90;;;;;;5074042;28;20711;-70
2022/09/25 11:55:19;;;;;;;1.83;0.70;;;15.70;99.90;;;;;;5074023;28;20574;-70
2022/09/25 11:57:51;;;;;;;2.40;1.10;;;16.00;99.90;;;;;;5056040;28;20470;-70
2022/09/25 12:00:18;;;;;;;1.95;0.70;;;16.50;99.90;;;;;;5072031;28;20048;-70
2022/09/25 12:03:17;;;;;;;1.88;1.00;;;16.00;99.90;;;;;;5072271;28;20120;-69
2022/09/25 12:06:11;;;;;;;2.53;0.65;;;16.00;99.90;;;;;;5073570;28;20390;-70
2022/09/25 12:09:19;;;;;;;2.97;0.85;;;15.90;99.90;;;;;;5072516;28;20044;-69
2022/09/25 12:12:09;;;;;;;5.78;1.00;;;16.00;99.90;;;;;;5072038;28;20127;-70
2022/09/25 12:14:44;;;;;;;3.42;0.68;;;16.30;99.90;;;;;;5071857;28;20072;-69
2022/09/25 12:17:39;;;;;;;9.90;2.38;;;16.20;99.90;;;;;;5073009;28;20437;-70
2022/09/25 12:20:22;;;;;;;12.48;1.27;;;16.10;99.90;;;;;;5073510;28;20040;-70
2022/09/25 12:23:09;;;;;;;2.22;0.77;;;16.70;99.90;;;;;;5073321;28;20068;-70
2022/09/25 12:25:52;;;;;;;3.58;1.30;;;16.80;99.90;;;;;;5072911;28;20173;-70
2022/09/25 12:28:37;;;;;;;4.28;0.80;;;16.70;99.90;;;;;;5071841;28;20036;-70
2022/09/25 12:31:18;;;;;;;5.40;0.93;;;16.90;99.90;;;;;;5055404;28;20380;-70
2022/09/25 12:34:11;;;;;;;6.50;0.77;;;17.00;99.90;;;;;;5072852;28;20044;-70
2022/09/25 12:36:40;;;;;;;5.38;0.88;;;16.90;99.90;;;;;;5071716;28;20037;-70
2022/09/25 12:39:28;;;;;;;3.22;0.98;;;17.80;99.90;;;;;;5072954;28;20036;-70
2022/09/25 12:42:03;;;;;;;7.25;0.85;;;17.00;99.90;;;;;;5071555;28;20037;-70
2022/09/25 12:44:38;;;;;;;3.55;0.90;;;17.10;99.90;;;;;;5071052;28;20048;-70
2022/09/25 12:47:14;;;;;;;1.73;0.77;;;16.30;99.90;;;;;;5054946;28;20037;-69
2022/09/25 12:49:48;;;;;;;6.00;2.20;;;16.50;99.90;;;;;;5072969;28;20123;-70
2022/09/25 12:52:21;;;;;;;2.78;1.20;;;16.10;99.90;;;;;;5072740;28;20033;-70
2022/09/25 12:55:06;;;;;;;4.93;1.27;;;16.30;99.90;;;;;;5071018;28;20490;-70
2022/09/25 12:57:47;;;;;;;2.78;0.75;;;16.30;99.90;;;;;;5072790;28;20056;-70
2022/09/25 13:00:20;;;;;;;4.43;0.80;;;16.70;99.90;;;;;;5071104;28;20082;-69
2022/09/25 13:03:01;;;;;;;;;;;16.80;99.90;;;;;;5073169;28;20559;-70
2022/09/25 13:05:57;;;;;;;2.08;0.95;;;16.90;99.90;;;;;;5071359;28;20449;-70
2022/09/25 13:08:33;;;;;;;1.83;0.60;;;16.90;99.90;;;;;;5071538;28;20127;-70
2022/09/25 13:11:07;;;;;;;2.17;0.40;;;17.00;99.90;;;;;;5071270;28;20040;-70
2022/09/25 13:13:43;;;;;;;3.53;0.55;;;16.70;99.70;;;;;;5070894;28;20052;-70
2022/09/25 13:16:09;;;;;;;1.45;0.45;;;16.90;99.90;;;;;;5070882;28;20037;-69
2022/09/25 13:18:35;;;;;;;3.00;0.50;;;17.10;99.70;;;;;;5072329;28;20036;-70
2022/09/25 13:21:22;;;;;;;1.85;0.40;;;17.00;99.00;;;;;;5054357;28;20037;-70
2022/09/25 13:23:51;;;;;;;1.75;0.90;;;17.20;99.90;;;;;;5070471;28;20266;-69
2022/09/25 13:26:26;;;;;;;0.80;0.50;;;17.40;99.90;;;;;;5072271;28;20119;-69
2022/09/25 13:28:58;;;;;;;1.40;0.38;;;18.20;99.90;;;;;;5070389;28;20136;-70
2022/09/25 13:31:32;;;;;;;3.55;1.23;;;17.10;99.60;;;;;;5072030;28;20036;-70
2022/09/25 13:34:00;;;;;;;5.03;0.70;;;16.70;99.50;;;;;;5070304;28;20103;-69
2022/09/25 13:36:49;;;;;;;1.88;0.45;;;16.50;99.90;;;;;;5070546;28;20140;-69
2022/09/25 13:42:49;;;;;;;2.65;0.50;;;16.90;99.90;;;;;;5072198;28;20105;-69
2022/09/25 13:45:20;;;;;;;0.93;0.40;;;16.80;99.90;;;;;;5036547;28;20048;-70